Time;durP1;ratioP1;P1;durP2;ratioP2;P2;SDS_P1;SDS_P2;PMS_P1;PMS_P2;Temp;Humidity;BMP_temperature;BMP_pressure;BME280_temperature;BME280_humidity;BME280_pressure;Samples;Min_cycle;Max_cycle;Signal;HPM_P1;HPM_P2
2022/03/05 00:00:13;;;;;;;7.25;5.65;;;;;;;;;;5019497;28;20030;-60
2022/03/05 00:02:38;;;;;;;6.75;6.07;;;;;;;;;;5017767;28;20045;-59
2022/03/05 00:05:04;;;;;;;5.70;4.95;;;;;;;;;;5020689;28;20065;-60
2022/03/05 00:07:29;;;;;;;6.15;5.18;;;;;;;;;;5006198;28;20025;-59
2022/03/05 00:09:55;;;;;;;5.65;4.93;;;;;;;;;;5017418;28;20359;-59
2022/03/05 00:12:20;;;;;;;5.70;4.78;;;;;;;;;;5018233;28;20116;-59
2022/03/05 00:14:45;;;;;;;6.18;5.57;;;;;;;;;;5018106;28;20065;-59
2022/03/05 00:17:11;;;;;;;8.05;5.75;;;;;;;;;;5019085;28;20021;-64
2022/03/05 00:19:36;;;;;;;6.05;5.55;;;;;;;;;;5019070;28;20102;-59
2022/03/05 00:22:02;;;;;;;9.48;6.43;;;;;;;;;;5018549;28;20033;-60
2022/03/05 00:24:28;;;;;;;5.40;4.90;;;;;;;;;;5009348;28;20052;-63
2022/03/05 00:26:54;;;;;;;7.10;5.13;;;;;;;;;;5018685;28;20037;-63
2022/03/05 00:29:19;;;;;;;6.65;5.40;;;;;;;;;;5017780;28;20044;-63
2022/03/05 00:31:45;;;;;;;4.78;4.32;;;;;;;;;;5018205;28;20045;-64
2022/03/05 00:34:11;;;;;;;6.10;5.50;;;;;;;;;;5018943;28;20033;-60
2022/03/05 00:36:38;;;;;;;6.43;5.75;;;;;;;;;;5017652;28;20101;-60
2022/03/05 00:39:04;;;;;;;8.38;5.85;;;;;;;;;;5017570;28;20041;-60
2022/03/05 00:41:29;;;;;;;10.10;5.75;;;;;;;;;;5018436;28;20038;-59
2022/03/05 00:43:54;;;;;;;5.97;5.40;;;;;;;;;;5017347;28;20029;-60
2022/03/05 00:46:20;;;;;;;6.53;5.93;;;;;;;;;;5020478;28;20072;-63
2022/03/05 00:48:45;;;;;;;5.70;5.20;;;;;;;;;;5020213;28;20533;-63
2022/03/05 00:51:10;;;;;;;14.55;5.78;;;;;;;;;;5018509;28;20030;-60
2022/03/05 00:53:36;;;;;;;6.00;5.15;;;;;;;;;;4999701;28;20405;-60
2022/03/05 00:56:01;;;;;;;11.23;5.65;;;;;;;;;;5018184;28;20064;-60
2022/03/05 00:58:26;;;;;;;5.45;4.57;;;;;;;;;;5014244;28;20072;-60
2022/03/05 01:00:52;;;;;;;4.93;4.45;;;;;;;;;;5018246;28;20427;-64
2022/03/05 01:03:18;;;;;;;7.88;5.38;;;;;;;;;;5015399;28;20049;-64
2022/03/05 01:05:43;;;;;;;4.70;4.30;;;;;;;;;;5020073;28;20034;-60
2022/03/05 01:08:09;;;;;;;5.90;5.32;;;;;;;;;;5017568;28;20064;-60
2022/03/05 01:10:35;;;;;;;4.72;4.25;;;;;;;;;;5018417;28;20029;-60
2022/03/05 01:13:00;;;;;;;5.93;5.03;;;;;;;;;;5018255;28;20087;-59
2022/03/05 01:15:25;;;;;;;5.90;4.40;;;;;;;;;;5003078;28;20095;-59
2022/03/05 01:17:51;;;;;;;5.70;4.85;;;;;;;;;;5018952;28;20474;-59
2022/03/05 01:20:16;;;;;;;6.40;5.80;;;;;;;;;;5018641;28;20033;-59
2022/03/05 01:22:41;;;;;;;5.72;5.13;;;;;;;;;;5018008;28;20163;-59
2022/03/05 01:25:07;;;;;;;7.18;5.65;;;;;;;;;;5021535;28;20044;-62
2022/03/05 01:27:33;;;;;;;8.05;6.22;;;;;;;;;;5019799;28;20042;-63
2022/03/05 01:29:58;;;;;;;4.88;4.40;;;;;;;;;;5018318;28;20561;-64
2022/03/05 01:32:23;;;;;;;5.82;4.68;;;;;;;;;;5016241;28;20036;-60
2022/03/05 01:34:49;;;;;;;6.25;5.65;;;;;;;;;;5019827;28;20379;-60
2022/03/05 01:37:14;;;;;;;5.57;5.07;;;;;;;;;;5018932;28;20065;-60
2022/03/05 01:39:41;;;;;;;7.50;5.80;;;;;;;;;;5016070;28;20064;-60
2022/03/05 01:42:08;;;;;;;7.80;5.75;;;;;;;;;;5018144;28;20057;-60
2022/03/05 01:44:33;;;;;;;5.10;4.60;;;;;;;;;;5014691;28;20038;-64
2022/03/05 01:47:03;;;;;;;7.28;6.07;;;;;;;;;;5020058;28;20033;-60
2022/03/05 01:49:29;;;;;;;7.05;5.95;;;;;;;;;;5021186;28;20025;-60
2022/03/05 01:51:56;;;;;;;7.95;6.07;;;;;;;;;;5020092;28;20022;-60
2022/03/05 01:54:22;;;;;;;7.40;6.03;;;;;;;;;;5022248;28;20409;-60
2022/03/05 01:56:48;;;;;;;9.40;6.68;;;;;;;;;;5021561;28;20044;-63
2022/03/05 01:59:13;;;;;;;6.82;4.85;;;;;;;;;;5004155;28;20053;-60
2022/03/05 02:01:38;;;;;;;8.50;5.25;;;;;;;;;;5021725;28;20033;-60
2022/03/05 02:04:05;;;;;;;5.80;5.15;;;;;;;;;;5005724;28;20108;-60
2022/03/05 02:06:31;;;;;;;6.57;5.35;;;;;;;;;;5021377;28;20125;-60
2022/03/05 02:08:57;;;;;;;7.90;6.18;;;;;;;;;;5021636;28;20132;-60
2022/03/05 02:11:23;;;;;;;6.60;5.43;;;;;;;;;;5022326;28;20026;-60
2022/03/05 02:13:48;;;;;;;6.60;5.45;;;;;;;;;;5021673;28;20033;-59
2022/03/05 02:16:13;;;;;;;5.68;4.63;;;;;;;;;;5020443;28;20120;-59
2022/03/05 02:18:44;;;;;;;10.75;6.30;;;;;;;;;;5020135;28;20037;-59
2022/03/05 02:21:10;;;;;;;7.18;5.15;;;;;;;;;;5023327;28;20037;-59
2022/03/05 02:23:35;;;;;;;6.00;5.45;;;;;;;;;;5002399;28;20029;-59
2022/03/05 02:26:05;;;;;;;5.90;4.80;;;;;;;;;;5021304;28;20037;-59
2022/03/05 02:28:32;;;;;;;5.20;4.68;;;;;;;;;;5019402;28;20100;-62
2022/03/05 02:30:58;;;;;;;9.93;5.68;;;;;;;;;;5018944;28;20041;-59
2022/03/05 02:33:24;;;;;;;5.95;5.45;;;;;;;;;;5023027;28;20043;-59
2022/03/05 02:35:50;;;;;;;5.45;4.95;;;;;;;;;;5018784;28;20109;-59
2022/03/05 02:38:20;;;;;;;5.65;4.88;;;;;;;;;;5019417;28;20125;-62
2022/03/05 02:40:47;;;;;;;8.15;6.35;;;;;;;;;;5019329;28;20041;-59
2022/03/05 02:43:12;;;;;;;7.40;5.43;;;;;;;;;;5022761;28;20037;-63
2022/03/05 02:45:38;;;;;;;5.60;5.07;;;;;;;;;;5020495;28;20709;-62
2022/03/05 02:48:06;;;;;;;5.43;4.93;;;;;;;;;;5020807;28;20076;-62
2022/03/05 02:50:32;;;;;;;9.57;5.65;;;;;;;;;;5025503;28;20056;-59
2022/03/05 02:52:58;;;;;;;7.28;5.18;;;;;;;;;;5021665;28;20038;-59
2022/03/05 02:55:24;;;;;;;4.72;4.22;;;;;;;;;;5019411;28;20025;-59
2022/03/05 02:57:49;;;;;;;6.38;5.60;;;;;;;;;;5019555;28;20451;-63
2022/03/05 03:00:15;;;;;;;6.22;5.43;;;;;;;;;;5020658;28;20526;-59
2022/03/05 03:02:41;;;;;;;7.35;6.00;;;;;;;;;;5020061;28;20029;-59
2022/03/05 03:05:07;;;;;;;6.55;5.28;;;;;;;;;;5023161;28;20052;-62
2022/03/05 03:07:32;;;;;;;5.85;5.28;;;;;;;;;;5019375;28;20463;-59
2022/03/05 03:10:01;;;;;;;6.15;5.53;;;;;;;;;;5021207;28;20041;-63
2022/03/05 03:12:27;;;;;;;8.45;6.45;;;;;;;;;;5025899;28;20084;-59
2022/03/05 03:14:52;;;;;;;8.23;5.28;;;;;;;;;;5020231;28;20383;-63
2022/03/05 03:17:18;;;;;;;8.25;5.40;;;;;;;;;;5021199;28;20121;-63
2022/03/05 03:19:43;;;;;;;5.85;5.35;;;;;;;;;;5021518;28;20121;-63
2022/03/05 03:22:09;;;;;;;6.72;5.53;;;;;;;;;;5002785;28;20030;-64
2022/03/05 03:24:35;;;;;;;5.45;4.95;;;;;;;;;;5019080;28;20064;-64
2022/03/05 03:27:00;;;;;;;5.78;4.47;;;;;;;;;;5020697;28;20596;-64
2022/03/05 03:29:26;;;;;;;8.15;5.78;;;;;;;;;;5022829;28;20459;-64
2022/03/05 03:31:51;;;;;;;5.22;4.72;;;;;;;;;;5020028;28;20040;-64
2022/03/05 03:34:16;;;;;;;11.27;6.40;;;;;;;;;;5019022;28;20033;-64
2022/03/05 03:36:42;;;;;;;6.28;5.63;;;;;;;;;;5019714;28;20469;-63
2022/03/05 03:39:07;;;;;;;5.75;5.25;;;;;;;;;;5016271;28;20065;-62
2022/03/05 03:41:33;;;;;;;6.63;5.85;;;;;;;;;;5019219;28;20459;-59
2022/03/05 03:43:58;;;;;;;7.53;5.47;;;;;;;;;;5018214;28;20037;-60
2022/03/05 03:46:23;;;;;;;12.50;6.35;;;;;;;;;;5017267;28;20045;-62
2022/03/05 03:48:49;;;;;;;6.38;5.72;;;;;;;;;;5023273;28;20021;-60
2022/03/05 03:51:14;;;;;;;9.18;5.72;;;;;;;;;;5020351;28;20030;-59
2022/03/05 03:53:39;;;;;;;5.68;4.72;;;;;;;;;;5016849;28;20467;-59
2022/03/05 03:56:05;;;;;;;5.50;4.75;;;;;;;;;;5017357;28;20030;-62
2022/03/05 03:58:30;;;;;;;8.75;6.22;;;;;;;;;;4990235;28;20140;-63
2022/03/05 04:00:56;;;;;;;8.27;5.78;;;;;;;;;;5018605;28;20402;-63
2022/03/05 04:03:21;;;;;;;8.07;7.28;;;;;;;;;;5021241;28;20042;-63
2022/03/05 04:05:46;;;;;;;8.63;6.45;;;;;;;;;;5019789;28;20038;-63
2022/03/05 04:10:56;;;;;;;5.47;4.55;;;;;;;;;;5018433;28;20162;-63
2022/03/05 04:13:21;;;;;;;7.20;6.60;;;;;;;;;;5020904;28;20565;-60
2022/03/05 04:15:46;;;;;;;7.07;5.15;;;;;;;;;;5016560;28;20632;-59
2022/03/05 04:18:12;;;;;;;7.63;6.90;;;;;;;;;;5019629;28;20030;-59
2022/03/05 04:20:38;;;;;;;6.45;5.25;;;;;;;;;;5018130;28;20041;-62
2022/03/05 04:23:04;;;;;;;7.97;6.35;;;;;;;;;;5019842;28;20113;-59
2022/03/05 04:25:29;;;;;;;6.50;5.90;;;;;;;;;;5018652;28;20045;-62
2022/03/05 04:27:55;;;;;;;6.15;5.55;;;;;;;;;;5009247;28;20030;-59
2022/03/05 04:30:20;;;;;;;8.73;5.25;;;;;;;;;;5020211;28;20536;-59
2022/03/05 04:32:46;;;;;;;7.90;6.57;;;;;;;;;;5020246;28;20068;-59
2022/03/05 04:35:12;;;;;;;7.00;5.35;;;;;;;;;;5018336;28;20025;-59
2022/03/05 04:37:38;;;;;;;6.60;5.97;;;;;;;;;;5018557;28;20140;-59
2022/03/05 04:40:05;;;;;;;12.50;7.40;;;;;;;;;;5019723;28;20451;-59
2022/03/05 04:42:30;;;;;;;8.50;5.20;;;;;;;;;;5018383;28;20041;-59
2022/03/05 04:44:56;;;;;;;6.05;5.13;;;;;;;;;;5017796;28;20044;-63
2022/03/05 04:47:21;;;;;;;5.00;4.50;;;;;;;;;;5018919;28;20518;-63
2022/03/05 04:49:47;;;;;;;9.57;6.88;;;;;;;;;;5009999;28;20038;-63
2022/03/05 04:52:13;;;;;;;6.70;5.55;;;;;;;;;;5017909;28;20227;-63
2022/03/05 04:54:38;;;;;;;6.88;6.20;;;;;;;;;;5017106;28;20052;-64
2022/03/05 04:57:03;;;;;;;8.20;6.32;;;;;;;;;;5017278;28;20092;-64
2022/03/05 04:59:29;;;;;;;8.70;5.60;;;;;;;;;;5018487;28;20117;-64
2022/03/05 05:01:56;;;;;;;6.32;5.72;;;;;;;;;;5017129;28;20109;-60
2022/03/05 05:04:22;;;;;;;6.85;6.15;;;;;;;;;;5005739;28;20130;-60
2022/03/05 05:06:47;;;;;;;6.82;5.50;;;;;;;;;;5018328;28;20474;-60
2022/03/05 05:09:13;;;;;;;5.65;5.15;;;;;;;;;;5017163;28;20456;-60
2022/03/05 05:11:39;;;;;;;6.60;5.00;;;;;;;;;;5018798;28;20045;-60
2022/03/05 05:14:04;;;;;;;5.40;4.90;;;;;;;;;;5017942;28;20045;-60
2022/03/05 05:16:30;;;;;;;16.80;6.22;;;;;;;;;;5020114;28;20029;-60
2022/03/05 05:21:39;;;;;;;6.60;5.93;;;;;;;;;;5019325;28;20482;-60
2022/03/05 05:24:05;;;;;;;5.20;4.80;;;;;;;;;;5022121;28;20072;-60
2022/03/05 05:26:30;;;;;;;5.80;5.25;;;;;;;;;;5023433;28;20030;-60
2022/03/05 05:28:56;;;;;;;7.88;6.47;;;;;;;;;;5021264;28;20483;-60
2022/03/05 05:31:21;;;;;;;6.93;6.22;;;;;;;;;;5022523;28;20480;-60
2022/03/05 05:33:48;;;;;;;6.03;5.47;;;;;;;;;;5024294;28;20037;-60
2022/03/05 05:36:14;;;;;;;8.52;6.80;;;;;;;;;;5021943;28;20040;-60
2022/03/05 05:38:39;;;;;;;14.40;6.18;;;;;;;;;;5021766;28;20385;-60
2022/03/05 05:41:06;;;;;;;6.88;6.18;;;;;;;;;;5025163;28;20021;-63
2022/03/05 05:43:31;;;;;;;6.57;5.80;;;;;;;;;;5023039;28;20104;-64
2022/03/05 05:45:57;;;;;;;9.68;6.65;;;;;;;;;;5005285;28;20133;-63
2022/03/05 05:48:22;;;;;;;9.15;7.10;;;;;;;;;;5023227;28;20053;-61
2022/03/05 05:50:48;;;;;;;6.45;5.85;;;;;;;;;;5011393;28;20064;-63
2022/03/05 05:53:13;;;;;;;10.27;6.07;;;;;;;;;;5021071;28;20042;-65
2022/03/05 05:55:39;;;;;;;13.95;6.43;;;;;;;;;;5022414;28;20025;-64
2022/03/05 05:58:04;;;;;;;6.32;5.72;;;;;;;;;;5021874;28;20034;-64
2022/03/05 06:00:30;;;;;;;6.70;5.88;;;;;;;;;;5025269;28;20037;-64
2022/03/05 06:02:55;;;;;;;6.75;5.65;;;;;;;;;;5024670;28;20034;-64
2022/03/05 06:05:20;;;;;;;8.95;5.88;;;;;;;;;;5024250;28;20403;-65
2022/03/05 06:07:46;;;;;;;6.78;6.07;;;;;;;;;;5024029;28;20443;-64
2022/03/05 06:10:11;;;;;;;5.88;5.38;;;;;;;;;;5023567;28;20382;-64
2022/03/05 06:12:37;;;;;;;6.80;6.25;;;;;;;;;;5022689;28;20418;-64
2022/03/05 06:15:04;;;;;;;6.88;6.13;;;;;;;;;;5023968;28;20515;-64
2022/03/05 06:17:30;;;;;;;6.85;6.15;;;;;;;;;;5022391;28;20025;-63
2022/03/05 06:19:55;;;;;;;7.45;5.63;;;;;;;;;;5005529;28;20451;-59
2022/03/05 06:22:20;;;;;;;5.10;4.65;;;;;;;;;;5021938;28;20044;-59
2022/03/05 06:24:46;;;;;;;6.45;5.80;;;;;;;;;;5022389;28;20153;-64
2022/03/05 06:27:11;;;;;;;7.45;6.80;;;;;;;;;;5022303;28;20065;-64
2022/03/05 06:29:36;;;;;;;6.47;5.82;;;;;;;;;;5008643;28;20033;-63
2022/03/05 06:32:02;;;;;;;9.50;6.57;;;;;;;;;;5007111;28;20862;-64
2022/03/05 06:34:28;;;;;;;5.82;5.32;;;;;;;;;;5018979;28;20041;-64
2022/03/05 06:36:55;;;;;;;7.80;6.72;;;;;;;;;;5019552;28;20033;-62
2022/03/05 06:39:20;;;;;;;6.13;5.03;;;;;;;;;;5009411;28;20033;-63
2022/03/05 06:41:46;;;;;;;5.25;4.78;;;;;;;;;;5019317;28;20061;-65
2022/03/05 06:44:11;;;;;;;5.72;5.22;;;;;;;;;;5020779;28;20040;-64
2022/03/05 06:46:36;;;;;;;5.60;5.07;;;;;;;;;;5019688;28;20033;-65
2022/03/05 06:49:02;;;;;;;7.60;6.80;;;;;;;;;;5022565;28;20436;-64
2022/03/05 06:51:27;;;;;;;6.30;5.70;;;;;;;;;;5024393;28;20029;-63
2022/03/05 06:53:53;;;;;;;9.65;7.43;;;;;;;;;;5017872;28;20069;-64
2022/03/05 06:56:18;;;;;;;6.80;6.15;;;;;;;;;;5018753;28;20026;-59
2022/03/05 06:58:44;;;;;;;6.72;6.13;;;;;;;;;;5018779;28;20026;-59
2022/03/05 07:01:10;;;;;;;5.43;4.68;;;;;;;;;;5020973;28;20038;-59
2022/03/05 07:03:36;;;;;;;6.05;5.30;;;;;;;;;;5023380;28;20454;-64
2022/03/05 07:06:01;;;;;;;6.25;5.50;;;;;;;;;;5003264;28;20065;-59
2022/03/05 07:08:26;;;;;;;7.35;6.65;;;;;;;;;;5020117;28;20034;-64
2022/03/05 07:10:52;;;;;;;5.03;4.53;;;;;;;;;;5018635;28;20484;-63
2022/03/05 07:13:17;;;;;;;7.93;5.28;;;;;;;;;;5018109;28;20403;-63
2022/03/05 07:15:43;;;;;;;8.63;5.97;;;;;;;;;;5005339;28;20030;-63
2022/03/05 07:18:08;;;;;;;6.88;6.10;;;;;;;;;;5020103;28;20451;-63
2022/03/05 07:20:33;;;;;;;7.20;5.30;;;;;;;;;;5018266;28;20053;-63
2022/03/05 07:22:59;;;;;;;7.38;5.68;;;;;;;;;;5021469;28;20187;-64
2022/03/05 07:25:24;;;;;;;5.32;4.82;;;;;;;;;;5019304;28;20041;-64
2022/03/05 07:27:50;;;;;;;10.95;6.28;;;;;;;;;;5003873;28;20033;-64
2022/03/05 07:30:15;;;;;;;10.05;5.15;;;;;;;;;;5019307;28;20037;-64
2022/03/05 07:32:41;;;;;;;17.30;6.65;;;;;;;;;;5021070;28;20473;-64
2022/03/05 07:35:07;;;;;;;11.55;5.45;;;;;;;;;;5015621;28;20033;-63
2022/03/05 07:37:33;;;;;;;4.97;4.53;;;;;;;;;;5016026;28;20136;-63
2022/03/05 07:39:58;;;;;;;4.72;4.32;;;;;;;;;;5016415;28;20148;-65
2022/03/05 07:42:24;;;;;;;6.43;5.80;;;;;;;;;;5016561;28;20041;-64
2022/03/05 07:44:49;;;;;;;6.13;4.65;;;;;;;;;;5017232;28;20048;-63
2022/03/05 07:47:15;;;;;;;8.23;5.88;;;;;;;;;;5017066;28;20511;-63
2022/03/05 07:49:40;;;;;;;8.50;6.60;;;;;;;;;;5019695;28;20064;-64
2022/03/05 07:52:06;;;;;;;5.85;5.28;;;;;;;;;;5020704;28;20044;-65
2022/03/05 07:54:31;;;;;;;6.07;5.47;;;;;;;;;;5018172;28;20045;-66
2022/03/05 07:56:57;;;;;;;7.28;6.18;;;;;;;;;;5021218;28;20124;-60
2022/03/05 07:59:22;;;;;;;6.03;5.03;;;;;;;;;;5019389;28;20479;-60
2022/03/05 08:01:47;;;;;;;5.47;4.97;;;;;;;;;;5002977;28;20362;-60
2022/03/05 08:04:13;;;;;;;5.80;5.28;;;;;;;;;;5007051;28;20386;-60
2022/03/05 08:06:38;;;;;;;6.97;5.20;;;;;;;;;;5019654;28;20025;-64
2022/03/05 08:09:04;;;;;;;8.88;6.05;;;;;;;;;;5022506;28;20045;-64
2022/03/05 08:11:29;;;;;;;6.95;6.32;;;;;;;;;;5019449;28;20059;-64
2022/03/05 08:13:55;;;;;;;6.63;5.32;;;;;;;;;;5016790;28;20039;-64
2022/03/05 08:16:20;;;;;;;5.57;5.07;;;;;;;;;;5019284;28;20359;-64
2022/03/05 08:18:45;;;;;;;5.97;5.45;;;;;;;;;;5017322;28;20033;-60
2022/03/05 08:21:11;;;;;;;5.78;5.25;;;;;;;;;;5022162;28;20057;-60
2022/03/05 08:23:36;;;;;;;9.30;7.25;;;;;;;;;;5020176;28;20426;-64
2022/03/05 08:26:02;;;;;;;7.13;6.22;;;;;;;;;;5023263;28;20120;-60
2022/03/05 08:28:27;;;;;;;7.50;5.22;;;;;;;;;;5021851;28;20045;-61
2022/03/05 08:30:53;;;;;;;7.43;6.63;;;;;;;;;;5016923;28;20045;-60
2022/03/05 08:33:21;;;;;;;9.55;5.72;;;;;;;;;;5020113;28;20051;-61
2022/03/05 08:35:47;;;;;;;7.90;7.00;;;;;;;;;;5017891;28;20040;-64
2022/03/05 08:38:13;;;;;;;11.30;6.45;;;;;;;;;;5019424;28;20030;-65
2022/03/05 08:40:38;;;;;;;6.50;5.70;;;;;;;;;;5015935;28;20673;-64
2022/03/05 08:43:03;;;;;;;7.18;6.47;;;;;;;;;;5015204;28;20036;-60
2022/03/05 08:45:29;;;;;;;11.07;6.03;;;;;;;;;;5017673;28;20441;-61
2022/03/05 08:47:55;;;;;;;9.80;6.10;;;;;;;;;;5018795;28;20104;-60
2022/03/05 08:50:20;;;;;;;6.10;5.18;;;;;;;;;;5018421;28;20068;-60
2022/03/05 08:52:45;;;;;;;7.57;6.43;;;;;;;;;;5019111;28;20047;-63
2022/03/05 08:55:13;;;;;;;6.43;5.82;;;;;;;;;;5020149;28;20049;-61
2022/03/05 08:57:39;;;;;;;7.32;6.20;;;;;;;;;;5022334;28;20120;-61
2022/03/05 09:00:08;;;;;;;7.60;6.60;;;;;;;;;;5024311;28;20029;-61
2022/03/05 09:02:33;;;;;;;7.40;6.10;;;;;;;;;;5021964;28;20111;-64
2022/03/05 09:04:58;;;;;;;8.07;7.00;;;;;;;;;;5024344;28;20029;-63
2022/03/05 09:07:24;;;;;;;6.35;5.75;;;;;;;;;;5022020;28;20120;-64
2022/03/05 09:09:49;;;;;;;10.38;5.97;;;;;;;;;;5021678;28;20045;-61
2022/03/05 09:12:14;;;;;;;7.68;5.47;;;;;;;;;;5023260;28;20034;-60
2022/03/05 09:14:40;;;;;;;6.97;6.20;;;;;;;;;;5027328;28;20041;-61
2022/03/05 09:17:06;;;;;;;5.13;4.65;;;;;;;;;;5024645;28;20022;-62
2022/03/05 09:19:32;;;;;;;8.57;6.32;;;;;;;;;;5024094;28;20030;-61
2022/03/05 09:21:58;;;;;;;7.43;6.55;;;;;;;;;;5020762;28;20596;-61
2022/03/05 09:24:23;;;;;;;7.72;5.95;;;;;;;;;;5020440;28;20095;-63
2022/03/05 09:26:48;;;;;;;11.32;5.68;;;;;;;;;;5010231;28;20120;-60
2022/03/05 09:29:14;;;;;;;5.75;5.25;;;;;;;;;;5023603;28;20033;-64
2022/03/05 09:31:40;;;;;;;11.93;5.78;;;;;;;;;;5012274;28;20163;-61
2022/03/05 09:34:05;;;;;;;7.00;6.38;;;;;;;;;;5025651;28;20057;-62
2022/03/05 09:36:31;;;;;;;8.85;6.65;;;;;;;;;;5024720;28;20060;-62
2022/03/05 09:38:57;;;;;;;7.07;6.38;;;;;;;;;;5006933;28;20577;-61
2022/03/05 09:41:22;;;;;;;7.43;6.13;;;;;;;;;;5025147;28;20029;-60
2022/03/05 09:43:48;;;;;;;5.63;5.15;;;;;;;;;;5023166;28;20363;-64
2022/03/05 09:46:18;;;;;;;8.68;7.03;;;;;;;;;;5025413;28;20029;-65
2022/03/05 09:48:44;;;;;;;8.83;7.13;;;;;;;;;;5024099;28;20026;-64
2022/03/05 09:51:09;;;;;;;6.97;6.25;;;;;;;;;;5022423;28;20556;-64
2022/03/05 09:53:35;;;;;;;7.30;6.38;;;;;;;;;;5023045;28;20038;-64
2022/03/05 09:56:01;;;;;;;8.50;6.05;;;;;;;;;;5020916;28;20041;-64
2022/03/05 09:58:26;;;;;;;6.18;5.47;;;;;;;;;;5009497;28;20049;-64
2022/03/05 10:00:52;;;;;;;5.95;5.35;;;;;;;;;;5020337;28;20038;-61
2022/03/05 10:03:17;;;;;;;6.65;6.05;;;;;;;;;;5021152;28;20029;-61
2022/03/05 10:05:42;;;;;;;8.30;6.47;;;;;;;;;;5024151;28;20044;-60
2022/03/05 10:08:10;;;;;;;11.18;6.90;;;;;;;;;;5021811;28;20068;-59
2022/03/05 10:10:44;;;;;;;6.15;5.65;;;;;;;;;;5024860;28;20037;-60
2022/03/05 10:13:24;;;;;;;14.98;6.13;;;;;;;;;;5021158;28;20033;-60
2022/03/05 10:15:52;;;;;;;7.03;6.28;;;;;;;;;;5024128;28;20504;-59
2022/03/05 10:18:34;;;;;;;7.13;5.80;;;;;;;;;;5020772;28;20030;-61
2022/03/05 10:21:02;;;;;;;13.38;7.40;;;;;;;;;;5020156;28;20463;-60
2022/03/05 10:23:32;;;;;;;7.25;5.75;;;;;;;;;;5022298;28;20399;-61
2022/03/05 10:25:57;;;;;;;5.95;5.30;;;;;;;;;;5023143;28;20029;-61
2022/03/05 10:28:25;;;;;;;7.70;6.90;;;;;;;;;;5025603;28;20044;-60
2022/03/05 10:31:01;;;;;;;6.95;6.30;;;;;;;;;;5022365;28;20030;-61
2022/03/05 10:33:37;;;;;;;7.15;6.45;;;;;;;;;;5018890;28;20171;-61
2022/03/05 10:36:16;;;;;;;7.43;6.57;;;;;;;;;;5020653;28;20052;-60
2022/03/05 10:38:41;;;;;;;6.75;6.10;;;;;;;;;;5020996;28;20104;-61
2022/03/05 10:41:07;;;;;;;6.97;6.38;;;;;;;;;;5011673;28;20525;-61
2022/03/05 10:43:32;;;;;;;6.10;5.47;;;;;;;;;;5022995;28;20044;-60
2022/03/05 10:46:00;;;;;;;5.97;5.47;;;;;;;;;;5019770;28;20053;-61
2022/03/05 10:48:28;;;;;;;8.07;6.03;;;;;;;;;;5018013;28;20049;-60
2022/03/05 10:50:55;;;;;;;6.75;5.88;;;;;;;;;;5023305;28;20119;-60
2022/03/05 10:53:34;;;;;;;7.93;5.65;;;;;;;;;;5021517;28;20044;-60
2022/03/05 10:56:30;;;;;;;10.18;6.45;;;;;;;;;;5021515;28;20072;-61
2022/03/05 10:59:10;;;;;;;7.20;6.53;;;;;;;;;;5016806;28;20033;-61
2022/03/05 11:01:41;;;;;;;6.35;5.63;;;;;;;;;;5018888;28;20033;-61
2022/03/05 11:04:08;;;;;;;7.03;6.32;;;;;;;;;;5021251;28;20065;-61
2022/03/05 11:06:41;;;;;;;8.70;7.28;;;;;;;;;;5021051;28;20065;-61
2022/03/05 11:09:09;;;;;;;6.85;6.25;;;;;;;;;;5021384;28;20037;-61
2022/03/05 11:11:38;;;;;;;7.15;6.45;;;;;;;;;;5021406;28;20026;-60
2022/03/05 11:14:06;;;;;;;7.13;6.13;;;;;;;;;;5020576;28;20040;-61
2022/03/05 11:16:32;;;;;;;6.20;5.60;;;;;;;;;;5022812;28;20366;-60
2022/03/05 11:18:58;;;;;;;6.57;5.93;;;;;;;;;;5020689;28;20048;-61
2022/03/05 11:21:25;;;;;;;6.53;5.82;;;;;;;;;;5021197;28;20017;-60
2022/03/05 11:23:51;;;;;;;6.28;5.68;;;;;;;;;;5022156;28;20090;-66
2022/03/05 11:26:17;;;;;;;7.80;7.07;;;;;;;;;;5019925;28;20040;-67
2022/03/05 11:28:48;;;;;;;6.70;6.20;;;;;;;;;;5019790;28;20084;-67
2022/03/05 11:31:31;;;;;;;7.55;6.18;;;;;;;;;;5018144;28;20128;-67
2022/03/05 11:34:14;;;;;;;6.55;5.95;;;;;;;;;;5018462;28;20438;-68
2022/03/05 11:36:40;;;;;;;6.10;5.60;;;;;;;;;;5019182;28;20137;-67
2022/03/05 11:39:13;;;;;;;7.50;6.80;;;;;;;;;;5018769;28;20030;-64
2022/03/05 11:41:59;;;;;;;6.80;6.20;;;;;;;;;;4986797;28;20041;-65
2022/03/05 11:44:43;;;;;;;6.43;5.93;;;;;;;;;;5019896;28;20511;-65
2022/03/05 11:47:29;;;;;;;7.18;6.57;;;;;;;;;;5005590;28;20398;-64
2022/03/05 11:50:00;;;;;;;7.07;6.43;;;;;;;;;;5019845;28;20049;-64
2022/03/05 11:52:48;;;;;;;;;;;;;;;;;;5019399;28;20029;-65
2022/03/05 11:55:13;;;;;;;7.10;6.53;;;;;;;;;;5012777;28;20003;-65
2022/03/05 11:57:42;;;;;;;6.00;5.57;;;;;;;;;;5018934;28;20120;-62
2022/03/05 12:00:08;;;;;;;6.57;6.05;;;;;;;;;;5017905;28;20022;-62
2022/03/05 12:02:50;;;;;;;6.68;6.07;;;;;;;;;;5020719;28;20386;-61
2022/03/05 12:05:37;;;;;;;6.40;5.75;;;;;;;;;;5018727;28;20033;-61
2022/03/05 12:08:04;;;;;;;7.07;6.47;;;;;;;;;;5018878;28;20041;-62
2022/03/05 12:10:29;;;;;;;6.38;5.20;;;;;;;;;;5018546;28;20049;-62
2022/03/05 12:12:56;;;;;;;6.65;5.88;;;;;;;;;;5017769;28;20025;-62
2022/03/05 12:15:39;;;;;;;8.77;6.43;;;;;;;;;;5018138;28;20034;-62
2022/03/05 12:18:09;;;;;;;5.78;5.28;;;;;;;;;;5006626;28;20033;-61
2022/03/05 12:20:40;;;;;;;6.15;5.30;;;;;;;;;;5019011;28;20079;-60
2022/03/05 12:23:07;;;;;;;;;;;;;;;;;;5008626;28;20462;-61
2022/03/05 12:25:40;;;;;;;6.40;5.90;;;;;;;;;;5017819;28;19963;-61
2022/03/05 12:28:15;;;;;;;7.65;5.60;;;;;;;;;;5020905;28;20037;-61
2022/03/05 12:30:41;;;;;;;6.85;6.25;;;;;;;;;;5017100;28;20100;-61
2022/03/05 12:33:10;;;;;;;6.47;5.97;;;;;;;;;;5003340;28;20049;-61
2022/03/05 12:35:36;;;;;;;6.75;6.15;;;;;;;;;;5021390;28;20041;-62
2022/03/05 12:38:02;;;;;;;6.47;5.90;;;;;;;;;;5017584;28;20072;-62
2022/03/05 12:40:30;;;;;;;9.10;7.20;;;;;;;;;;5017734;28;20061;-62
2022/03/05 12:42:56;;;;;;;7.07;6.50;;;;;;;;;;5016316;28;20040;-62
2022/03/05 12:45:26;;;;;;;6.88;6.28;;;;;;;;;;5020064;28;20033;-62
2022/03/05 12:47:53;;;;;;;7.18;6.57;;;;;;;;;;5019583;28;20064;-62
2022/03/05 12:50:31;;;;;;;7.05;6.40;;;;;;;;;;5016503;28;20593;-61
2022/03/05 12:52:58;;;;;;;10.57;9.50;;;;;;;;;;5017313;28;20037;-60
2022/03/05 12:55:58;;;;;;;6.78;6.13;;;;;;;;;;5008785;28;20033;-61
2022/03/05 12:58:29;;;;;;;6.53;5.93;;;;;;;;;;5009262;28;20549;-61
2022/03/05 13:01:00;;;;;;;17.10;7.07;;;;;;;;;;5018037;28;20055;-61
2022/03/05 13:03:27;;;;;;;7.60;7.00;;;;;;;;;;5017921;28;20598;-60
2022/03/05 13:05:53;;;;;;;6.65;6.03;;;;;;;;;;5020299;28;20029;-60
2022/03/05 13:08:28;;;;;;;5.90;5.40;;;;;;;;;;5017249;28;20042;-60
2022/03/05 13:11:13;;;;;;;6.50;6.00;;;;;;;;;;5017040;28;20124;-61
2022/03/05 13:13:42;;;;;;;6.25;5.70;;;;;;;;;;5002672;28;20038;-61
2022/03/05 13:16:10;;;;;;;10.05;6.78;;;;;;;;;;5019282;28;20469;-62
2022/03/05 13:18:37;;;;;;;5.95;5.53;;;;;;;;;;5019100;28;20087;-62
2022/03/05 13:21:05;;;;;;;5.95;5.47;;;;;;;;;;5019485;28;20166;-63
2022/03/05 13:23:34;;;;;;;6.03;5.53;;;;;;;;;;5016255;28;20030;-61
2022/03/05 13:26:01;;;;;;;5.85;5.32;;;;;;;;;;5017441;28;20590;-61
2022/03/05 13:28:28;;;;;;;6.20;5.70;;;;;;;;;;5015731;28;20048;-61
2022/03/05 13:30:55;;;;;;;6.53;5.80;;;;;;;;;;5021147;28;20640;-61
2022/03/05 13:33:41;;;;;;;6.93;6.22;;;;;;;;;;5000669;28;20029;-62
2022/03/05 13:36:24;;;;;;;5.75;5.25;;;;;;;;;;5021286;28;20061;-61
2022/03/05 13:38:51;;;;;;;6.25;5.75;;;;;;;;;;5019774;28;20029;-62
2022/03/05 13:41:25;;;;;;;6.47;5.88;;;;;;;;;;5019072;28;20030;-61
2022/03/05 13:43:51;;;;;;;6.32;5.82;;;;;;;;;;5024939;28;20095;-61
2022/03/05 13:46:18;;;;;;;6.40;5.82;;;;;;;;;;5022651;28;20046;-64
2022/03/05 13:48:49;;;;;;;6.15;5.65;;;;;;;;;;5021224;28;20038;-65
2022/03/05 13:51:17;;;;;;;7.25;6.68;;;;;;;;;;5021159;28;20045;-66
2022/03/05 13:53:44;;;;;;;6.68;6.18;;;;;;;;;;5020741;28;20353;-66
2022/03/05 13:56:09;;;;;;;6.50;5.90;;;;;;;;;;5017271;28;20124;-61
2022/03/05 13:58:38;;;;;;;5.68;5.28;;;;;;;;;;5019560;28;20176;-60
2022/03/05 14:01:15;;;;;;;6.95;6.38;;;;;;;;;;5020144;28;20462;-60
2022/03/05 14:04:08;;;;;;;6.32;5.82;;;;;;;;;;5021071;28;20029;-61
2022/03/05 14:06:56;;;;;;;6.28;5.78;;;;;;;;;;5020432;28;20537;-61
2022/03/05 14:09:36;;;;;;;5.47;5.07;;;;;;;;;;5003446;28;20924;-61
2022/03/05 14:12:07;;;;;;;7.00;6.30;;;;;;;;;;5022167;28;20107;-61
2022/03/05 14:14:42;;;;;;;6.82;6.25;;;;;;;;;;5019471;28;20184;-61
2022/03/05 14:17:09;;;;;;;7.07;6.50;;;;;;;;;;5024301;28;20040;-61
2022/03/05 14:19:35;;;;;;;6.90;6.35;;;;;;;;;;5009954;28;20471;-61
2022/03/05 14:22:04;;;;;;;5.47;5.07;;;;;;;;;;5019490;28;20092;-65
2022/03/05 14:24:29;;;;;;;7.25;5.35;;;;;;;;;;5023024;28;20038;-65
2022/03/05 14:26:56;;;;;;;7.85;7.15;;;;;;;;;;5021880;28;20032;-65
2022/03/05 14:29:22;;;;;;;5.70;5.20;;;;;;;;;;5002670;28;20535;-64
2022/03/05 14:31:47;;;;;;;6.55;5.72;;;;;;;;;;5020059;28;20033;-61
2022/03/05 14:34:21;;;;;;;6.85;6.32;;;;;;;;;;5017650;28;20113;-61
2022/03/05 14:36:47;;;;;;;8.50;5.90;;;;;;;;;;5022316;28;20081;-61
2022/03/05 14:39:13;;;;;;;6.95;6.32;;;;;;;;;;5019958;28;20077;-61
2022/03/05 14:41:39;;;;;;;7.40;6.80;;;;;;;;;;5020569;28;20041;-60
2022/03/05 14:44:04;;;;;;;7.10;6.18;;;;;;;;;;5018490;28;20029;-61
2022/03/05 14:46:30;;;;;;;6.63;6.03;;;;;;;;;;5019219;28;20601;-61
2022/03/05 14:48:55;;;;;;;5.88;5.43;;;;;;;;;;5018220;28;20056;-61